createdAt,value
2022-09-13T00:00:11.063Z,0.00
2022-09-13T00:01:11.151Z,0.00
2022-09-13T00:02:11.121Z,0.00
2022-09-13T00:03:11.064Z,0.00
2022-09-13T00:04:11.071Z,0.00
2022-09-13T00:05:11.063Z,0.00
2022-09-13T00:06:14.070Z,0.00
2022-09-13T00:07:11.066Z,0.00
2022-09-13T00:08:11.066Z,0.00
2022-09-13T00:09:11.066Z,0.00
2022-09-13T00:10:11.073Z,0.00
2022-09-13T00:11:15.065Z,0.00
2022-09-13T00:12:11.063Z,0.00
2022-09-13T00:13:11.071Z,0.00
2022-09-13T00:14:11.067Z,0.00
2022-09-13T00:15:11.070Z,0.00
2022-09-13T00:16:13.132Z,0.00
2022-09-13T00:17:11.067Z,0.00
2022-09-13T00:18:11.063Z,0.00
2022-09-13T00:19:11.064Z,0.00
2022-09-13T00:20:11.066Z,0.00
2022-09-13T00:21:14.057Z,0.00
2022-09-13T00:22:11.057Z,0.00
2022-09-13T00:23:11.058Z,0.00
2022-09-13T00:24:11.057Z,0.00
2022-09-13T00:25:11.059Z,0.00
2022-09-13T00:26:12.066Z,0.00
2022-09-13T00:27:11.058Z,0.00
2022-09-13T00:28:11.059Z,0.00
2022-09-13T00:29:11.061Z,0.00
2022-09-13T00:30:11.057Z,0.00
2022-09-13T00:31:11.060Z,0.01
2022-09-13T00:32:11.061Z,0.00
2022-09-13T00:33:11.056Z,0.00
2022-09-13T00:34:11.061Z,0.00
2022-09-13T00:35:11.061Z,0.00
2022-09-13T00:36:11.057Z,0.00
2022-09-13T00:37:11.062Z,0.00
2022-09-13T00:38:11.067Z,0.00
2022-09-13T00:39:11.057Z,0.00
2022-09-13T00:40:11.186Z,0.00
2022-09-13T00:41:13.069Z,0.00
2022-09-13T00:42:15.060Z,0.00
2022-09-13T00:43:17.057Z,0.00
2022-09-13T00:44:19.061Z,0.00
2022-09-13T00:45:15.073Z,0.00
2022-09-13T00:46:11.117Z,0.00
2022-09-13T00:47:11.059Z,0.00
2022-09-13T00:48:15.070Z,0.00
2022-09-13T00:49:16.064Z,0.00
2022-09-13T00:50:19.058Z,0.00
2022-09-13T00:51:11.064Z,0.00
2022-09-13T00:52:14.065Z,0.00
2022-09-13T00:53:16.063Z,0.00
2022-09-13T00:54:11.064Z,0.00
2022-09-13T00:55:14.070Z,0.00
2022-09-13T00:56:15.076Z,0.00
2022-09-13T00:57:11.058Z,0.00
2022-09-13T00:58:18.071Z,0.00
2022-09-13T00:59:15.087Z,0.00
2022-09-13T01:00:20.065Z,0.00
2022-09-13T01:01:13.118Z,0.00
2022-09-13T01:02:11.177Z,0.00
2022-09-13T01:03:13.067Z,0.00
2022-09-13T01:04:12.834Z,0.00
2022-09-13T01:05:11.074Z,0.00
2022-09-13T01:06:15.064Z,0.00
2022-09-13T01:07:12.069Z,0.00
2022-09-13T01:08:15.085Z,0.00
2022-09-13T01:09:12.069Z,0.00
2022-09-13T01:10:11.062Z,0.00
2022-09-13T01:11:18.068Z,0.00
2022-09-13T01:12:20.067Z,0.00
2022-09-13T01:13:22.062Z,0.00
2022-09-13T01:14:11.064Z,0.00
2022-09-13T01:15:11.066Z,0.00
2022-09-13T01:16:11.115Z,0.00
2022-09-13T01:17:11.064Z,0.00
2022-09-13T01:18:11.066Z,0.00
2022-09-13T01:19:11.074Z,0.00
2022-09-13T01:20:11.064Z,0.00
2022-09-13T01:21:19.058Z,0.00
2022-09-13T01:22:19.068Z,0.00
2022-09-13T01:23:19.059Z,0.00
2022-09-13T01:24:21.079Z,0.00
2022-09-13T01:25:21.055Z,0.00
2022-09-13T01:26:19.055Z,0.00
2022-09-13T01:27:19.060Z,0.00
2022-09-13T01:28:19.072Z,0.00
2022-09-13T01:29:19.060Z,0.00
2022-09-13T01:30:22.056Z,0.00
2022-09-13T01:31:19.113Z,0.00
2022-09-13T01:32:19.060Z,0.00
2022-09-13T01:33:19.072Z,0.00
2022-09-13T01:34:21.059Z,0.00
2022-09-13T01:35:19.056Z,0.00
2022-09-13T01:36:19.055Z,0.00
2022-09-13T01:37:19.061Z,0.00
2022-09-13T01:38:19.072Z,0.00
2022-09-13T01:39:16.062Z,0.00
2022-09-13T01:40:22.114Z,0.00
2022-09-13T01:41:19.059Z,0.00
2022-09-13T01:42:19.059Z,0.00
2022-09-13T01:43:21.068Z,0.00
2022-09-13T01:44:21.080Z,0.00
2022-09-13T01:45:21.077Z,0.00
2022-09-13T01:46:19.063Z,0.00
2022-09-13T01:47:21.062Z,0.00
2022-09-13T01:48:17.063Z,0.00
2022-09-13T01:49:21.090Z,0.00
2022-09-13T01:50:21.081Z,0.00
2022-09-13T01:51:21.060Z,0.00
2022-09-13T01:52:18.064Z,0.00
2022-09-13T01:53:19.066Z,0.00
2022-09-13T01:54:23.081Z,0.00
2022-09-13T01:55:18.061Z,0.00
2022-09-13T01:56:17.060Z,0.00
2022-09-13T01:57:19.061Z,0.00
2022-09-13T01:58:19.063Z,0.00
2022-09-13T01:59:16.076Z,0.00
2022-09-13T02:00:14.062Z,0.00
2022-09-13T02:01:18.139Z,0.00
2022-09-13T02:02:17.136Z,0.00
2022-09-13T02:03:18.070Z,0.00
2022-09-13T02:04:17.063Z,0.00
2022-09-13T02:05:19.063Z,0.00
2022-09-13T02:06:14.062Z,0.00
2022-09-13T02:07:18.070Z,0.00
2022-09-13T02:08:21.087Z,0.00
2022-09-13T02:09:13.065Z,0.00
2022-09-13T02:10:22.077Z,0.00
2022-09-13T02:11:13.066Z,0.00
2022-09-13T02:12:16.065Z,0.00
2022-09-13T02:13:15.061Z,0.00
2022-09-13T02:14:17.066Z,0.00
2022-09-13T02:15:15.066Z,0.00
2022-09-13T02:16:15.084Z,0.00
2022-09-13T02:17:17.064Z,0.00
2022-09-13T02:18:20.061Z,0.00
2022-09-13T02:19:17.065Z,0.00
2022-09-13T02:20:16.066Z,0.00
2022-09-13T02:21:20.057Z,0.00
2022-09-13T02:22:13.063Z,0.00
2022-09-13T02:23:17.070Z,0.00
2022-09-13T02:24:13.059Z,0.00
2022-09-13T02:25:14.056Z,0.00
2022-09-13T02:26:11.061Z,0.00
2022-09-13T02:27:18.080Z,0.00
2022-09-13T02:28:14.059Z,0.00
2022-09-13T02:29:13.061Z,0.00
2022-09-13T02:30:11.060Z,0.00
2022-09-13T02:31:11.069Z,0.00
2022-09-13T02:32:17.057Z,0.00
2022-09-13T02:33:17.062Z,0.00
2022-09-13T02:34:20.088Z,0.00
2022-09-13T02:35:19.063Z,0.00
2022-09-13T02:36:16.062Z,0.00
2022-09-13T02:37:11.061Z,0.00
2022-09-13T02:38:19.064Z,0.00
2022-09-13T02:39:15.070Z,0.00
2022-09-13T02:40:16.098Z,0.00
2022-09-13T02:41:17.059Z,0.00
2022-09-13T02:42:16.065Z,0.00
2022-09-13T02:43:19.065Z,0.00
2022-09-13T02:44:19.061Z,0.00
2022-09-13T02:45:11.067Z,0.00
2022-09-13T02:46:22.057Z,0.00
2022-09-13T02:47:17.062Z,0.00
2022-09-13T02:48:16.069Z,0.00
2022-09-13T02:49:19.067Z,0.00
2022-09-13T02:50:19.062Z,0.00
2022-09-13T02:51:22.061Z,0.00
2022-09-13T02:52:19.065Z,0.00
2022-09-13T02:53:19.066Z,0.00
2022-09-13T02:54:19.060Z,0.00
2022-09-13T02:55:19.061Z,0.00
2022-09-13T02:56:19.064Z,0.00
2022-09-13T02:57:19.074Z,0.00
2022-09-13T02:58:22.474Z,0.00
2022-09-13T02:59:21.085Z,0.00
2022-09-13T03:00:11.059Z,0.00
2022-09-13T03:01:11.122Z,0.00
2022-09-13T03:02:15.198Z,0.00
2022-09-13T03:03:12.063Z,0.00
2022-09-13T03:04:11.064Z,0.00
2022-09-13T03:05:11.071Z,0.00
2022-09-13T03:06:11.061Z,0.00
2022-09-13T03:07:14.063Z,0.00
2022-09-13T03:08:11.065Z,0.00
2022-09-13T03:09:11.062Z,0.00
2022-09-13T03:10:12.065Z,0.00
2022-09-13T03:11:19.065Z,0.00
2022-09-13T03:12:19.067Z,0.00
2022-09-13T03:13:21.069Z,0.00
2022-09-13T03:14:21.067Z,0.00
2022-09-13T03:15:19.063Z,0.00
2022-09-13T03:16:19.156Z,0.00
2022-09-13T03:17:21.066Z,0.00
2022-09-13T03:18:22.063Z,0.00
2022-09-13T03:19:21.064Z,0.00
2022-09-13T03:20:23.061Z,0.00
2022-09-13T03:21:19.058Z,0.00
2022-09-13T03:22:21.066Z,0.00
2022-09-13T03:23:18.059Z,0.00
2022-09-13T03:24:19.057Z,0.00
2022-09-13T03:25:19.056Z,0.00
2022-09-13T03:26:22.057Z,0.00
2022-09-13T03:27:19.067Z,0.00
2022-09-13T03:28:22.061Z,0.00
2022-09-13T03:29:21.057Z,0.00
2022-09-13T03:30:14.058Z,0.00
2022-09-13T03:31:24.092Z,0.00
2022-09-13T03:32:24.061Z,0.00
2022-09-13T03:33:19.065Z,0.00
2022-09-13T03:34:19.061Z,0.00
2022-09-13T03:35:22.064Z,0.00
2022-09-13T03:36:19.060Z,0.00
2022-09-13T03:37:19.055Z,0.00
2022-09-13T03:38:15.058Z,0.00
2022-09-13T03:39:22.061Z,0.00
2022-09-13T03:40:16.133Z,0.00
2022-09-13T03:41:16.061Z,0.00
2022-09-13T03:42:20.076Z,0.00
2022-09-13T03:43:19.064Z,0.00
2022-09-13T03:44:14.071Z,0.00
2022-09-13T03:45:11.080Z,0.00
2022-09-13T03:46:22.062Z,0.00
2022-09-13T03:47:11.065Z,0.00
2022-09-13T03:48:12.068Z,0.00
2022-09-13T03:49:13.059Z,0.00
2022-09-13T03:50:14.062Z,0.00
2022-09-13T03:51:11.065Z,0.00
2022-09-13T03:52:11.063Z,0.00
2022-09-13T03:53:11.057Z,0.00
2022-09-13T03:54:16.068Z,0.00
2022-09-13T03:55:11.063Z,0.00
2022-09-13T03:56:15.059Z,0.00
2022-09-13T03:57:14.066Z,0.00
2022-09-13T03:58:15.070Z,0.00
2022-09-13T03:59:11.063Z,0.00
2022-09-13T04:00:13.066Z,0.00
2022-09-13T04:01:11.113Z,0.00
2022-09-13T04:02:11.122Z,0.00
2022-09-13T04:03:11.062Z,0.00
2022-09-13T04:04:11.063Z,0.00
2022-09-13T04:05:11.068Z,0.00
2022-09-13T04:06:11.066Z,0.00
2022-09-13T04:07:11.063Z,0.00
2022-09-13T04:08:11.062Z,0.00
2022-09-13T04:09:11.063Z,0.00
2022-09-13T04:10:13.711Z,0.00
2022-09-13T04:11:11.072Z,0.00
2022-09-13T04:12:11.066Z,0.00
2022-09-13T04:13:11.065Z,0.00
2022-09-13T04:14:11.067Z,0.00
2022-09-13T04:15:11.064Z,0.00
2022-09-13T04:16:11.122Z,0.00
2022-09-13T04:17:11.071Z,0.00
2022-09-13T04:18:11.063Z,0.00
2022-09-13T04:19:11.066Z,0.00
2022-09-13T04:20:11.072Z,0.00
2022-09-13T04:21:11.057Z,0.00
2022-09-13T04:22:11.057Z,0.00
2022-09-13T04:23:11.059Z,0.00
2022-09-13T04:24:11.058Z,0.00
2022-09-13T04:25:11.057Z,0.00
2022-09-13T04:26:11.056Z,0.00
2022-09-13T04:27:11.059Z,0.00
2022-09-13T04:28:11.056Z,0.00
2022-09-13T04:29:11.057Z,0.00
2022-09-13T04:30:11.058Z,0.00
2022-09-13T04:31:11.138Z,0.00
2022-09-13T04:32:11.061Z,0.00
2022-09-13T04:33:11.059Z,0.00
2022-09-13T04:34:11.058Z,0.00
2022-09-13T04:35:12.058Z,0.00
2022-09-13T04:36:11.066Z,0.00
2022-09-13T04:37:11.056Z,0.00
2022-09-13T04:38:11.060Z,0.00
2022-09-13T04:39:11.068Z,0.00
2022-09-13T04:40:11.114Z,0.00
2022-09-13T04:41:11.060Z,0.00
2022-09-13T04:42:11.066Z,0.00
2022-09-13T04:43:11.057Z,0.00
2022-09-13T04:44:11.060Z,0.00
2022-09-13T04:45:11.068Z,0.00
2022-09-13T04:46:11.131Z,0.00
2022-09-13T04:47:11.060Z,0.00
2022-09-13T04:48:11.068Z,0.00
2022-09-13T04:49:11.059Z,0.00
2022-09-13T04:50:11.064Z,0.00
2022-09-13T04:51:11.070Z,0.00
2022-09-13T04:52:11.061Z,0.00
2022-09-13T04:53:11.064Z,0.00
2022-09-13T04:54:14.998Z,0.00
2022-09-13T04:55:11.062Z,0.00
2022-09-13T04:56:11.064Z,0.00
2022-09-13T04:57:11.071Z,0.00
2022-09-13T04:58:11.064Z,0.00
2022-09-13T04:59:11.074Z,0.00
2022-09-13T05:00:11.064Z,0.00
2022-09-13T05:01:11.143Z,0.00
2022-09-13T05:02:11.114Z,0.00
2022-09-13T05:03:11.072Z,0.00
2022-09-13T05:04:11.064Z,0.00
2022-09-13T05:05:11.058Z,0.00
2022-09-13T05:06:12.067Z,0.00
2022-09-13T05:07:11.063Z,0.00
2022-09-13T05:08:11.060Z,0.00
2022-09-13T05:09:13.069Z,0.00
2022-09-13T05:10:11.066Z,0.00
2022-09-13T05:11:11.059Z,0.00
2022-09-13T05:12:13.096Z,0.00
2022-09-13T05:13:11.063Z,0.00
2022-09-13T05:14:13.070Z,0.00
2022-09-13T05:15:11.062Z,0.00
2022-09-13T05:16:11.088Z,0.00
2022-09-13T05:17:11.063Z,0.00
2022-09-13T05:18:11.063Z,0.00
2022-09-13T05:19:11.066Z,0.00
2022-09-13T05:20:11.063Z,0.00
2022-09-13T05:21:11.056Z,0.00
2022-09-13T05:22:11.065Z,0.00
2022-09-13T05:23:11.053Z,0.00
2022-09-13T05:24:11.055Z,0.00
2022-09-13T05:25:11.057Z,0.00
2022-09-13T05:26:11.053Z,0.00
2022-09-13T05:27:11.060Z,0.00
2022-09-13T05:28:11.065Z,0.00
2022-09-13T05:29:11.055Z,0.00
2022-09-13T05:30:11.057Z,0.00
2022-09-13T05:31:14.107Z,0.00
2022-09-13T05:32:11.058Z,0.00
2022-09-13T05:33:11.054Z,0.00
2022-09-13T05:34:11.060Z,0.00
2022-09-13T05:35:11.059Z,0.00
2022-09-13T05:36:11.054Z,0.00
2022-09-13T05:37:11.056Z,0.00
2022-09-13T05:38:11.058Z,0.00
2022-09-13T05:39:29.784Z,0.00
2022-09-13T05:40:13.904Z,0.00
2022-09-13T05:41:11.064Z,0.00
2022-09-13T05:42:11.057Z,0.00
2022-09-13T05:43:11.062Z,0.00
2022-09-13T05:44:13.579Z,0.00
2022-09-13T05:45:11.061Z,0.00
2022-09-13T05:46:12.149Z,0.00
2022-09-13T05:47:11.066Z,0.00
2022-09-13T05:48:11.059Z,0.00
2022-09-13T05:49:12.059Z,0.00
2022-09-13T05:50:18.962Z,0.00
2022-09-13T05:51:16.088Z,0.00
2022-09-13T05:52:11.059Z,0.00
2022-09-13T05:53:11.059Z,0.00
2022-09-13T05:54:12.063Z,0.00
2022-09-13T05:55:11.058Z,0.00
2022-09-13T05:56:20.062Z,0.01
2022-09-13T05:57:11.062Z,0.00
2022-09-13T05:58:11.062Z,0.01
2022-09-13T05:59:13.060Z,0.01
2022-09-13T06:00:11.066Z,0.01
2022-09-13T06:01:11.067Z,0.01
2022-09-13T06:02:11.176Z,0.02
2022-09-13T06:03:11.076Z,0.01
2022-09-13T06:04:11.062Z,0.01
2022-09-13T06:05:13.076Z,0.02
2022-09-13T06:06:11.064Z,0.02
2022-09-13T06:07:14.062Z,0.03
2022-09-13T06:08:11.060Z,0.02
2022-09-13T06:09:12.063Z,0.02
2022-09-13T06:10:11.069Z,0.03
2022-09-13T06:11:12.065Z,0.03
2022-09-13T06:12:11.058Z,0.03
2022-09-13T06:13:11.064Z,0.03
2022-09-13T06:14:11.065Z,0.03
2022-09-13T06:15:11.058Z,0.04
2022-09-13T06:16:11.131Z,0.04
2022-09-13T06:17:11.064Z,0.03
2022-09-13T06:18:11.059Z,0.04
2022-09-13T06:19:11.071Z,0.04
2022-09-13T06:20:11.062Z,0.04
2022-09-13T06:21:14.059Z,0.04
2022-09-13T06:22:11.055Z,0.05
2022-09-13T06:23:11.058Z,0.05
2022-09-13T06:24:11.054Z,0.05
2022-09-13T06:25:11.056Z,0.05
2022-09-13T06:26:11.068Z,0.06
2022-09-13T06:27:11.062Z,0.05
2022-09-13T06:28:11.056Z,0.06
2022-09-13T06:29:12.059Z,0.06
2022-09-13T06:30:12.055Z,0.06
2022-09-13T06:31:12.107Z,0.06
2022-09-13T06:32:11.064Z,0.07
2022-09-13T06:33:11.055Z,0.07
2022-09-13T06:34:12.057Z,0.07
2022-09-13T06:35:11.064Z,0.08
2022-09-13T06:36:14.054Z,0.08
2022-09-13T06:37:11.059Z,0.08
2022-09-13T06:38:11.065Z,0.08
2022-09-13T06:39:11.059Z,0.08
2022-09-13T06:40:11.265Z,0.09
2022-09-13T06:41:14.060Z,0.09
2022-09-13T06:42:11.061Z,0.09
2022-09-13T06:43:11.057Z,0.10
2022-09-13T06:44:11.058Z,0.09
2022-09-13T06:45:11.059Z,0.09
2022-09-13T06:46:16.106Z,0.10
2022-09-13T06:47:11.059Z,0.10
2022-09-13T06:48:11.084Z,0.10
2022-09-13T06:49:11.057Z,0.10
2022-09-13T06:50:11.059Z,0.10
2022-09-13T06:51:15.066Z,0.10
2022-09-13T06:52:11.059Z,0.11
2022-09-13T06:53:11.055Z,0.11
2022-09-13T06:54:11.061Z,0.11
2022-09-13T06:55:12.764Z,0.11
2022-09-13T06:56:12.056Z,0.11
2022-09-13T06:57:11.061Z,0.10
2022-09-13T06:58:11.061Z,0.11
2022-09-13T06:59:11.057Z,0.11
2022-09-13T07:00:11.062Z,0.12
2022-09-13T07:01:21.154Z,0.12
2022-09-13T07:02:11.092Z,0.12
2022-09-13T07:03:11.061Z,0.12
2022-09-13T07:04:15.060Z,0.12
2022-09-13T07:05:11.059Z,0.12
2022-09-13T07:06:14.060Z,0.12
2022-09-13T07:07:11.071Z,0.12
2022-09-13T07:08:11.063Z,0.13
2022-09-13T07:09:15.061Z,0.12
2022-09-13T07:10:11.068Z,0.13
2022-09-13T07:11:11.062Z,0.13
2022-09-13T07:12:11.057Z,0.13
2022-09-13T07:13:11.065Z,0.13
2022-09-13T07:14:16.063Z,0.14
2022-09-13T07:15:11.061Z,0.14
2022-09-13T07:16:12.109Z,0.14
2022-09-13T07:17:11.064Z,0.14
2022-09-13T07:18:11.062Z,0.14
2022-09-13T07:19:14.061Z,0.14
2022-09-13T07:20:11.070Z,0.13
2022-09-13T07:21:11.056Z,0.14
2022-09-13T07:22:11.059Z,0.14
2022-09-13T07:23:15.184Z,0.14
2022-09-13T07:24:11.056Z,0.15
2022-09-13T07:25:11.065Z,0.15
2022-09-13T07:26:11.066Z,0.15
2022-09-13T07:27:11.057Z,0.15
2022-09-13T07:28:11.059Z,0.15
2022-09-13T07:29:14.062Z,0.15
2022-09-13T07:30:11.056Z,0.15
2022-09-13T07:31:15.104Z,0.15
2022-09-13T07:32:11.067Z,0.15
2022-09-13T07:33:11.060Z,0.16
2022-09-13T07:34:13.061Z,0.16
2022-09-13T07:35:11.062Z,0.17
2022-09-13T07:36:13.060Z,0.16
2022-09-13T07:37:11.054Z,0.17
2022-09-13T07:38:11.062Z,0.17
2022-09-13T07:39:15.582Z,0.17
2022-09-13T07:40:13.234Z,0.17
2022-09-13T07:41:14.061Z,0.18
2022-09-13T07:42:11.067Z,0.18
2022-09-13T07:43:11.061Z,0.18
2022-09-13T07:44:11.056Z,0.18
2022-09-13T07:45:11.062Z,0.18
2022-09-13T07:46:17.129Z,0.19
2022-09-13T07:47:11.065Z,0.18
2022-09-13T07:48:11.064Z,0.18
2022-09-13T07:49:14.065Z,0.19
2022-09-13T07:50:11.062Z,0.20
2022-09-13T07:51:15.069Z,0.19
2022-09-13T07:52:11.062Z,0.19
2022-09-13T07:53:11.061Z,0.18
2022-09-13T07:54:15.060Z,0.19
2022-09-13T07:55:11.062Z,0.19
2022-09-13T07:56:14.061Z,0.19
2022-09-13T07:57:11.063Z,0.19
2022-09-13T07:58:11.069Z,0.19
2022-09-13T07:59:15.073Z,0.19
2022-09-13T08:00:11.062Z,0.20
2022-09-13T08:01:14.095Z,0.20
2022-09-13T08:02:11.197Z,0.20
2022-09-13T08:03:12.062Z,0.20
2022-09-13T08:04:12.064Z,0.20
2022-09-13T08:05:11.065Z,0.20
2022-09-13T08:06:11.062Z,0.21
2022-09-13T08:07:11.075Z,0.21
2022-09-13T08:08:11.065Z,0.21
2022-09-13T08:09:11.063Z,0.21
2022-09-13T08:10:11.063Z,0.21
2022-09-13T08:11:13.086Z,0.22
2022-09-13T08:12:11.063Z,0.23
2022-09-13T08:13:11.065Z,0.23
2022-09-13T08:14:11.085Z,0.24
2022-09-13T08:15:11.063Z,0.24
2022-09-13T08:16:11.121Z,0.23
2022-09-13T08:17:11.074Z,0.24
2022-09-13T08:18:11.065Z,0.24
2022-09-13T08:19:12.072Z,0.24
2022-09-13T08:20:11.066Z,0.25
2022-09-13T08:21:11.056Z,0.25
2022-09-13T08:22:11.063Z,0.26
2022-09-13T08:23:11.059Z,0.27
2022-09-13T08:24:17.059Z,0.28
2022-09-13T08:25:11.058Z,0.29
2022-09-13T08:26:11.064Z,0.29
2022-09-13T08:27:11.058Z,0.27
2022-09-13T08:28:15.060Z,0.26
2022-09-13T08:29:11.061Z,0.26
2022-09-13T08:30:11.058Z,0.26
2022-09-13T08:31:15.146Z,0.26
2022-09-13T08:32:11.062Z,0.26
2022-09-13T08:33:11.060Z,0.25
2022-09-13T08:34:14.058Z,0.26
2022-09-13T08:35:11.062Z,0.26
2022-09-13T08:36:11.067Z,0.26
2022-09-13T08:37:11.061Z,0.26
2022-09-13T08:38:11.062Z,0.26
2022-09-13T08:39:11.061Z,0.26
2022-09-13T08:40:11.104Z,0.26
2022-09-13T08:41:19.065Z,0.26
2022-09-13T08:42:19.062Z,0.26
2022-09-13T08:43:19.061Z,0.26
2022-09-13T08:44:19.060Z,0.26
2022-09-13T08:45:11.062Z,0.27
2022-09-13T08:46:19.159Z,0.27
2022-09-13T08:47:22.061Z,0.28
2022-09-13T08:48:14.061Z,0.29
2022-09-13T08:49:17.056Z,0.31
2022-09-13T08:50:19.178Z,0.31
2022-09-13T08:51:19.073Z,0.31
2022-09-13T08:52:19.061Z,0.30
2022-09-13T08:53:22.061Z,0.30
2022-09-13T08:54:13.061Z,0.29
2022-09-13T08:55:19.063Z,0.34
2022-09-13T08:56:19.074Z,0.34
2022-09-13T08:57:18.065Z,0.37
2022-09-13T08:58:19.062Z,0.40
2022-09-13T08:59:19.063Z,0.43
2022-09-13T09:00:22.081Z,0.44
2022-09-13T09:01:19.117Z,0.43
2022-09-13T09:02:22.152Z,0.44
2022-09-13T09:03:22.061Z,0.42
2022-09-13T09:04:19.061Z,0.43
2022-09-13T09:05:25.063Z,0.45
2022-09-13T09:06:16.063Z,0.43
2022-09-13T09:07:17.064Z,0.44
2022-09-13T09:08:19.062Z,0.44
2022-09-13T09:09:16.060Z,0.43
2022-09-13T09:10:16.084Z,0.44
2022-09-13T09:11:19.065Z,0.42
2022-09-13T09:12:19.062Z,0.46
2022-09-13T09:13:15.064Z,0.46
2022-09-13T09:14:19.064Z,0.47
2022-09-13T09:15:19.072Z,0.46
2022-09-13T09:16:19.147Z,0.47
2022-09-13T09:17:16.064Z,0.50
2022-09-13T09:18:19.066Z,0.50
2022-09-13T09:19:22.077Z,0.51
2022-09-13T09:20:19.065Z,0.51
2022-09-13T09:21:15.056Z,0.51
2022-09-13T09:22:17.060Z,0.52
2022-09-13T09:23:21.345Z,0.51
2022-09-13T09:24:17.061Z,0.44
2022-09-13T09:25:11.063Z,0.41
2022-09-13T09:26:17.098Z,0.37
2022-09-13T09:27:16.061Z,0.37
2022-09-13T09:28:17.062Z,0.31
2022-09-13T09:29:21.761Z,0.30
2022-09-13T09:30:16.101Z,0.30
2022-09-13T09:31:22.144Z,0.33
2022-09-13T09:32:21.071Z,0.36
2022-09-13T09:33:19.061Z,0.34
2022-09-13T09:34:22.058Z,0.35
2022-09-13T09:35:19.057Z,0.43
2022-09-13T09:36:19.061Z,0.37
2022-09-13T09:37:19.069Z,0.41
2022-09-13T09:38:19.061Z,0.35
2022-09-13T09:39:13.057Z,0.33
2022-09-13T09:40:14.218Z,0.28
2022-09-13T09:41:19.072Z,0.27
2022-09-13T09:42:16.061Z,0.26
2022-09-13T09:43:17.057Z,0.27
2022-09-13T09:44:19.147Z,0.29
2022-09-13T09:45:19.068Z,0.30
2022-09-13T09:46:11.160Z,0.34
2022-09-13T09:47:25.935Z,0.37
2022-09-13T09:48:18.074Z,0.44
2022-09-13T09:49:29.065Z,0.47
2022-09-13T09:50:17.062Z,0.51
2022-09-13T09:51:11.069Z,0.51
2022-09-13T09:52:16.061Z,0.51
2022-09-13T09:53:16.064Z,0.48
2022-09-13T09:54:11.061Z,0.48
2022-09-13T09:55:22.065Z,0.46
2022-09-13T09:56:19.062Z,0.43
2022-09-13T09:57:13.062Z,0.44
2022-09-13T09:58:11.064Z,0.46
2022-09-13T09:59:19.066Z,0.45
2022-09-13T10:00:13.073Z,0.45
2022-09-13T10:01:16.104Z,0.49
2022-09-13T10:02:18.086Z,0.50
2022-09-13T10:03:18.070Z,0.50
2022-09-13T10:04:19.062Z,0.51
2022-09-13T10:05:11.066Z,0.52
2022-09-13T10:06:12.067Z,0.53
2022-09-13T10:07:22.066Z,0.52
2022-09-13T10:08:19.062Z,0.51
2022-09-13T10:09:18.062Z,0.46
2022-09-13T10:10:19.064Z,0.46
2022-09-13T10:11:11.073Z,0.45
2022-09-13T10:12:15.066Z,0.43
2022-09-13T10:13:19.064Z,0.43
2022-09-13T10:14:19.068Z,0.37
2022-09-13T10:15:15.080Z,0.42
2022-09-13T10:16:19.116Z,0.43
2022-09-13T10:17:19.065Z,0.43
2022-09-13T10:18:39.985Z,0.41
2022-09-13T10:19:21.088Z,0.43
2022-09-13T10:20:19.068Z,0.43
2022-09-13T10:21:22.056Z,0.38
2022-09-13T10:22:14.056Z,0.35
2022-09-13T10:23:19.057Z,0.34
2022-09-13T10:24:21.066Z,0.32
2022-09-13T10:25:19.061Z,0.30
2022-09-13T10:26:16.067Z,0.30
2022-09-13T10:27:19.060Z,0.30
2022-09-13T10:28:15.068Z,0.36
2022-09-13T10:29:14.060Z,0.38
2022-09-13T10:30:19.059Z,0.38
2022-09-13T10:31:16.239Z,0.40
2022-09-13T10:32:13.743Z,0.36
2022-09-13T10:33:19.061Z,0.33
2022-09-13T10:34:17.060Z,0.34
2022-09-13T10:35:17.063Z,0.33
2022-09-13T10:36:21.173Z,0.33
2022-09-13T10:37:21.105Z,0.33
2022-09-13T10:38:22.062Z,0.34
2022-09-13T10:39:17.059Z,0.33
2022-09-13T10:40:20.127Z,0.35
2022-09-13T10:41:22.069Z,0.35
2022-09-13T10:42:11.071Z,0.37
2022-09-13T10:43:16.060Z,0.35
2022-09-13T10:44:19.060Z,0.37
2022-09-13T10:45:15.064Z,0.35
2022-09-13T10:46:14.121Z,0.36
2022-09-13T10:47:18.064Z,0.37
2022-09-13T10:48:17.062Z,0.38
2022-09-13T10:49:19.066Z,0.39
2022-09-13T10:50:19.071Z,0.36
2022-09-13T10:51:19.064Z,0.41
2022-09-13T10:52:22.060Z,0.38
2022-09-13T10:53:19.060Z,0.38
2022-09-13T10:54:19.064Z,0.40
2022-09-13T10:55:19.068Z,0.40
2022-09-13T10:56:19.066Z,0.41
2022-09-13T10:57:19.062Z,0.43
2022-09-13T10:58:16.062Z,0.41
2022-09-13T10:59:15.065Z,0.39
2022-09-13T11:00:13.126Z,0.41
2022-09-13T11:01:22.081Z,0.42
2022-09-13T11:02:19.064Z,0.40
2022-09-13T11:03:19.066Z,0.38
2022-09-13T11:04:19.174Z,0.38
2022-09-13T11:05:22.067Z,0.36
2022-09-13T11:06:19.064Z,0.38
2022-09-13T11:07:19.063Z,0.40
2022-09-13T11:08:19.067Z,0.37
2022-09-13T11:09:20.073Z,0.34
2022-09-13T11:10:19.067Z,0.31
2022-09-13T11:11:19.066Z,0.33
2022-09-13T11:12:20.070Z,0.34
2022-09-13T11:13:19.069Z,0.35
2022-09-13T11:14:19.067Z,0.34
2022-09-13T11:15:19.066Z,0.33
2022-09-13T11:16:19.102Z,0.34
2022-09-13T11:17:19.068Z,0.35
2022-09-13T11:18:19.077Z,0.34
2022-09-13T11:19:19.077Z,0.34
2022-09-13T11:20:22.056Z,0.34
2022-09-13T11:21:19.057Z,0.35
2022-09-13T11:22:21.062Z,0.35
2022-09-13T11:23:19.059Z,0.33
2022-09-13T11:24:22.067Z,0.33
2022-09-13T11:25:22.059Z,0.33
2022-09-13T11:26:19.059Z,0.33
2022-09-13T11:27:23.058Z,0.35
2022-09-13T11:28:19.056Z,0.36
2022-09-13T11:29:21.058Z,0.37
2022-09-13T11:30:19.072Z,0.36
2022-09-13T11:31:21.084Z,0.37
2022-09-13T11:32:19.059Z,0.38
2022-09-13T11:33:19.062Z,0.37
2022-09-13T11:34:23.062Z,0.37
2022-09-13T11:35:19.073Z,0.35
2022-09-13T11:36:19.061Z,0.35
2022-09-13T11:37:19.066Z,0.36
2022-09-13T11:38:21.062Z,0.37
2022-09-13T11:39:19.060Z,0.38
2022-09-13T11:40:24.198Z,0.37
2022-09-13T11:41:19.063Z,0.38
2022-09-13T11:42:21.060Z,0.37
2022-09-13T11:43:21.061Z,0.36
2022-09-13T11:44:21.084Z,0.36
2022-09-13T11:45:21.485Z,0.35
2022-09-13T11:46:19.072Z,0.36
2022-09-13T11:47:19.064Z,0.36
2022-09-13T11:48:21.093Z,0.35
2022-09-13T11:49:19.065Z,0.35
2022-09-13T11:50:19.065Z,0.35
2022-09-13T11:51:23.072Z,0.35
2022-09-13T11:52:19.115Z,0.35
2022-09-13T11:53:19.081Z,0.35
2022-09-13T11:54:19.106Z,0.35
2022-09-13T11:55:16.091Z,0.35
2022-09-13T11:56:18.065Z,0.35
2022-09-13T11:57:14.062Z,0.35
2022-09-13T11:58:21.065Z,0.34
2022-09-13T11:59:21.066Z,0.34
2022-09-13T12:00:19.064Z,0.34
2022-09-13T12:01:16.063Z,0.34
2022-09-13T12:02:19.201Z,0.33
2022-09-13T12:03:21.151Z,0.34
2022-09-13T12:04:19.072Z,0.34
2022-09-13T12:05:22.985Z,0.33
2022-09-13T12:06:18.315Z,0.33
2022-09-13T12:07:18.064Z,0.33
2022-09-13T12:08:19.065Z,0.33
2022-09-13T12:09:21.076Z,0.33
2022-09-13T12:10:21.066Z,0.34
2022-09-13T12:11:19.065Z,0.35
2022-09-13T12:12:12.065Z,0.34
2022-09-13T12:13:16.067Z,0.34
2022-09-13T12:14:17.069Z,0.34
2022-09-13T12:15:16.066Z,0.34
2022-09-13T12:16:15.114Z,0.35
2022-09-13T12:17:19.072Z,0.34
2022-09-13T12:18:21.069Z,0.34
2022-09-13T12:19:17.069Z,0.34
2022-09-13T12:20:21.057Z,0.34
2022-09-13T12:21:18.060Z,0.33
2022-09-13T12:22:11.057Z,0.33
2022-09-13T12:23:17.058Z,0.33
2022-09-13T12:24:17.056Z,0.33
2022-09-13T12:25:19.060Z,0.33
2022-09-13T12:26:19.066Z,0.32
2022-09-13T12:27:19.063Z,0.33
2022-09-13T12:28:19.060Z,0.33
2022-09-13T12:29:19.059Z,0.33
2022-09-13T12:30:18.059Z,0.33
2022-09-13T12:31:16.071Z,0.34
2022-09-13T12:32:11.059Z,0.34
2022-09-13T12:33:13.060Z,0.34
2022-09-13T12:34:17.065Z,0.35
2022-09-13T12:35:19.061Z,0.36
2022-09-13T12:36:19.058Z,0.36
2022-09-13T12:37:19.063Z,0.36
2022-09-13T12:38:21.060Z,0.36
2022-09-13T12:39:21.069Z,0.35
2022-09-13T12:40:20.211Z,0.35
2022-09-13T12:41:19.060Z,0.35
2022-09-13T12:42:19.059Z,0.36
2022-09-13T12:43:22.061Z,0.35
2022-09-13T12:44:23.070Z,0.36
2022-09-13T12:45:19.077Z,0.35
2022-09-13T12:46:21.063Z,0.34
2022-09-13T12:47:19.060Z,0.34
2022-09-13T12:48:21.059Z,0.33
2022-09-13T12:49:21.065Z,0.32
2022-09-13T12:50:41.908Z,0.33
2022-09-13T12:51:21.084Z,0.34
2022-09-13T12:52:19.065Z,0.34
2022-09-13T12:53:19.063Z,0.32
2022-09-13T12:54:21.064Z,0.32
2022-09-13T12:55:42.630Z,0.32
2022-09-13T12:56:21.063Z,0.33
2022-09-13T12:57:21.064Z,0.35
2022-09-13T12:58:21.064Z,0.34
2022-09-13T12:59:21.066Z,0.35
2022-09-13T13:00:21.064Z,0.37
2022-09-13T13:01:19.220Z,0.36
2022-09-13T13:02:19.131Z,0.37
2022-09-13T13:03:19.065Z,0.37
2022-09-13T13:04:20.062Z,0.37
2022-09-13T13:05:19.065Z,0.38
2022-09-13T13:06:17.081Z,0.39
2022-09-13T13:07:20.074Z,0.38
2022-09-13T13:08:19.065Z,0.35
2022-09-13T13:09:19.066Z,0.35
2022-09-13T13:10:19.066Z,0.36
2022-09-13T13:11:12.077Z,0.38
2022-09-13T13:12:19.066Z,0.39
2022-09-13T13:13:18.064Z,0.38
2022-09-13T13:14:23.067Z,0.35
2022-09-13T13:15:21.076Z,0.34
2022-09-13T13:16:19.118Z,0.36
2022-09-13T13:17:19.066Z,0.36
2022-09-13T13:18:19.068Z,0.35